KRYY/RYY METAR and TAF weather

Enter ICAO airport designator
Station Type Date Time Source
KRYY METAR 2022/01/25 04:50 UTC NOAA

KRYY 250450Z AUTO 23004KT 10SM CLR 07/00 A2993 RMK AO2 SLP135 T00720000 $


Station Type Date Time Source
KRYY Decoded METAR 2022/01/25 04:50 UTC NOAA

Marietta, Cobb County-McCollum Field Airport, GA, United States (KRYY) 34-00-47N 084-35-55W
Jan 24, 2022 - 11:50 PM EST / 2022.01.25 0450 UTC
Wind: from the SW (230 degrees) at 5 MPH (4 KT):0
Visibility: 10 mile(s):0
Sky conditions: clear
Temperature: 45.0 F (7.2 C)
Dew Point: 32.0 F (0.0 C)
Relative Humidity: 60%
Pressure (altimeter): 29.93 in. Hg (1013 hPa)
ob: KRYY 250450Z AUTO 23004KT 10SM CLR 07/00 A2993 RMK AO2 SLP135 T00720000
cycle: 5

Station Type Date Time Source
KRYY TAF 2022/01/24 18:36 UTC NOAA

TAF KRYY 241733Z 2418/2518 26006KT P6SM SKC
FM241900 26007KT P6SM SKC
FM242200 24006KT P6SM FEW250
FM250400 22004KT P6SM BKN250
FM251500 27004KT P6SM BKN090

Example: see airport list